Portada
METAR-TAF:

METAR-TAF

Aeroports :

Urgench, Uzbekistan

latitud: 41-35N, longitud: 060-38-42E, altitud: 98 m

Observació

L'informe es va fer fa 30 minuts, a les 10:00 UTC
Vent 8 kt del Est/Nord-Est
Temperatura 42°C
Humitat 16%
Pressió 1003 hPa
Visibilitat 10 km o més
sense núvols per sota de 1500 mi sense presència de cumulonimbus.

METAR: UTNU 171000Z 07008KT CAVOK 42/11 Q1003 R13/CLRD70 NOSIG

Hora: 15:30 (10:30 UTC)

Pronòstic

L'informe es va fer fa 5 hores i 30 minuts, a les 05:00 UTC
Pronòstic vàlid del 17 a les 06 UTC al 18 a les 06 UTC
Vent 10 kt del Est/Nord-Est amb ràfegues de 20 kt
Visibilitat: 7000 m
Temporalment
l' 17 a les 06 UTC al 17 a les 12 UTC
Vent 14 kt del Est

TAF: UTNU 170500Z 1706/1806 06010G20KT 7000 NSC TX40/1710Z TEMPO 1706/1712 09014KT

Observacions i pronòstics meteorològics de més de 4000 aeroports (METAR i TAF).

Les estacions disponibles són els punts grocs i vermells al mapa.

Posi el ratolí al punt desitjat per veure el nom de l'estació.

Feu clic per veure les observacions i els pronòstics meteorològics.

Per canviar el mapa: feu clic els botons verds amb una creu de color negre per apropar; al botó verd amb un guió per allunyar la imatge; o en les fletxes verdes per a mapes adjacents.


METAR-TAF: